Decoded Metar for PAGY (SKAGWAY in AK, USA) (IATA:SGY) | Meteo·Mobile Aviation Weather
aviador You're here:

PAGY Decoded Metar

SKAGWAY in AK, USA
Report Time2018-09-18 15:53:00
UTC Time2018-09-18 16:11:17
Flight Rules vfr VFR
WindCalm
Visibility9999 m
Phenomena:N/A
Clouds:N/A
Expected CloudBase > 800 ft AGL from Temp-Dew spread
CeilingNone
Temp01°C (ISA -14)
Dew Point-1°C (87% RH)
AAT-1.1°C
QNH1023 hPa
Density Alt-1,952 ft
Elevation16 ft
Report Wrong Elevation
Raw Report
PAGY 181553Z AUTO 00000KT 10SM CLR 01/M01 A3022 RMK AO2 SLP232
T00061011 TSNO=

Extra information for PAGY:More info

Metar Taf Metar & Taf Last 4 Metars F.Rules Stats Wind Profile Meteogram Temp Stats Airport Information Weather charts Add Link Nearby VenuesMetar ALERT Operation Metar Decoded Social comments

AIRNAV info for PAGY